sensor_id;sensor_type;location;lat;lon;timestamp;P1;durP1;ratioP1;P2;durP2;ratioP2
59938;SDS011;45801;51.810;19.444;2022-08-19T00:01:18;14.00;;;9.10;;
59938;SDS011;45801;51.810;19.444;2022-08-19T00:03:44;12.60;;;10.10;;
59938;SDS011;45801;51.810;19.444;2022-08-19T00:06:10;12.70;;;8.80;;
59938;SDS011;45801;51.810;19.444;2022-08-19T00:08:36;13.00;;;9.40;;
59938;SDS011;45801;51.810;19.444;2022-08-19T00:11:02;12.70;;;9.00;;
59938;SDS011;45801;51.810;19.444;2022-08-19T00:13:28;12.60;;;9.30;;
59938;SDS011;45801;51.810;19.444;2022-08-19T00:15:55;13.70;;;9.60;;
59938;SDS011;45801;51.810;19.444;2022-08-19T00:18:21;13.50;;;9.50;;
59938;SDS011;45801;51.810;19.444;2022-08-19T00:20:47;13.30;;;9.80;;
59938;SDS011;45801;51.810;19.444;2022-08-19T00:23:12;12.30;;;9.20;;
59938;SDS011;45801;51.810;19.444;2022-08-19T00:25:38;11.30;;;9.20;;
59938;SDS011;45801;51.810;19.444;2022-08-19T00:28:04;14.10;;;10.10;;
59938;SDS011;45801;51.810;19.444;2022-08-19T00:30:30;12.10;;;9.30;;
59938;SDS011;45801;51.810;19.444;2022-08-19T00:32:56;13.60;;;10.40;;
59938;SDS011;45801;51.810;19.444;2022-08-19T00:35:23;13.70;;;9.60;;
59938;SDS011;45801;51.810;19.444;2022-08-19T00:37:49;13.30;;;8.50;;
59938;SDS011;45801;51.810;19.444;2022-08-19T00:40:15;14.60;;;9.30;;
59938;SDS011;45801;51.810;19.444;2022-08-19T00:42:43;12.80;;;9.70;;
59938;SDS011;45801;51.810;19.444;2022-08-19T00:45:14;14.20;;;10.00;;
59938;SDS011;45801;51.810;19.444;2022-08-19T00:47:44;13.00;;;9.30;;
59938;SDS011;45801;51.810;19.444;2022-08-19T00:50:11;12.40;;;9.40;;
59938;SDS011;45801;51.810;19.444;2022-08-19T00:52:42;13.40;;;9.00;;
59938;SDS011;45801;51.810;19.444;2022-08-19T00:55:15;12.50;;;9.90;;
59938;SDS011;45801;51.810;19.444;2022-08-19T00:57:51;13.80;;;9.80;;
59938;SDS011;45801;51.810;19.444;2022-08-19T01:00:22;14.50;;;9.70;;
59938;SDS011;45801;51.810;19.444;2022-08-19T01:02:49;13.70;;;9.70;;
59938;SDS011;45801;51.810;19.444;2022-08-19T01:05:17;11.10;;;8.80;;
59938;SDS011;45801;51.810;19.444;2022-08-19T01:07:46;14.30;;;9.50;;
59938;SDS011;45801;51.810;19.444;2022-08-19T01:10:14;14.00;;;9.80;;
59938;SDS011;45801;51.810;19.444;2022-08-19T01:12:44;12.80;;;9.40;;
59938;SDS011;45801;51.810;19.444;2022-08-19T01:15:12;11.80;;;9.70;;
59938;SDS011;45801;51.810;19.444;2022-08-19T01:17:42;13.30;;;10.10;;
59938;SDS011;45801;51.810;19.444;2022-08-19T01:20:11;14.30;;;10.50;;
59938;SDS011;45801;51.810;19.444;2022-08-19T01:22:43;12.20;;;9.40;;
59938;SDS011;45801;51.810;19.444;2022-08-19T01:25:14;13.90;;;10.00;;
59938;SDS011;45801;51.810;19.444;2022-08-19T01:27:45;13.00;;;10.60;;
59938;SDS011;45801;51.810;19.444;2022-08-19T01:30:14;13.30;;;10.30;;
59938;SDS011;45801;51.810;19.444;2022-08-19T01:32:43;13.60;;;10.20;;
59938;SDS011;45801;51.810;19.444;2022-08-19T01:35:09;13.00;;;9.10;;
59938;SDS011;45801;51.810;19.444;2022-08-19T01:37:45;12.70;;;9.50;;
59938;SDS011;45801;51.810;19.444;2022-08-19T01:40:23;13.10;;;9.10;;
59938;SDS011;45801;51.810;19.444;2022-08-19T01:42:54;12.20;;;9.70;;
59938;SDS011;45801;51.810;19.444;2022-08-19T01:45:21;13.40;;;9.00;;
59938;SDS011;45801;51.810;19.444;2022-08-19T01:47:49;14.10;;;9.80;;
59938;SDS011;45801;51.810;19.444;2022-08-19T01:50:16;13.70;;;9.90;;
59938;SDS011;45801;51.810;19.444;2022-08-19T01:52:43;13.00;;;10.30;;
59938;SDS011;45801;51.810;19.444;2022-08-19T01:55:13;15.60;;;10.20;;
59938;SDS011;45801;51.810;19.444;2022-08-19T01:57:41;13.60;;;10.20;;
59938;SDS011;45801;51.810;19.444;2022-08-19T02:00:12;12.80;;;10.20;;
59938;SDS011;45801;51.810;19.444;2022-08-19T02:02:41;13.00;;;10.10;;
59938;SDS011;45801;51.810;19.444;2022-08-19T02:05:08;13.20;;;9.30;;
59938;SDS011;45801;51.810;19.444;2022-08-19T02:07:35;15.40;;;10.40;;
59938;SDS011;45801;51.810;19.444;2022-08-19T02:10:05;12.90;;;9.60;;
59938;SDS011;45801;51.810;19.444;2022-08-19T02:12:33;16.20;;;10.20;;
59938;SDS011;45801;51.810;19.444;2022-08-19T02:14:59;14.80;;;10.80;;
59938;SDS011;45801;51.810;19.444;2022-08-19T02:17:26;13.20;;;9.80;;
59938;SDS011;45801;51.810;19.444;2022-08-19T02:19:56;13.90;;;9.80;;
59938;SDS011;45801;51.810;19.444;2022-08-19T02:22:22;14.30;;;9.70;;
59938;SDS011;45801;51.810;19.444;2022-08-19T02:24:49;14.40;;;10.10;;
59938;SDS011;45801;51.810;19.444;2022-08-19T02:27:15;14.70;;;9.90;;
59938;SDS011;45801;51.810;19.444;2022-08-19T02:29:42;13.90;;;9.30;;
59938;SDS011;45801;51.810;19.444;2022-08-19T02:32:08;14.20;;;9.10;;
59938;SDS011;45801;51.810;19.444;2022-08-19T02:34:34;14.30;;;9.20;;
59938;SDS011;45801;51.810;19.444;2022-08-19T02:37:00;13.30;;;9.40;;
59938;SDS011;45801;51.810;19.444;2022-08-19T02:39:26;12.70;;;9.30;;
59938;SDS011;45801;51.810;19.444;2022-08-19T02:41:51;13.70;;;9.60;;
59938;SDS011;45801;51.810;19.444;2022-08-19T02:44:17;12.10;;;9.40;;
59938;SDS011;45801;51.810;19.444;2022-08-19T02:46:44;11.70;;;9.50;;
59938;SDS011;45801;51.810;19.444;2022-08-19T02:49:12;13.90;;;10.00;;
59938;SDS011;45801;51.810;19.444;2022-08-19T02:51:41;12.40;;;9.50;;
59938;SDS011;45801;51.810;19.444;2022-08-19T02:54:09;12.10;;;9.40;;
59938;SDS011;45801;51.810;19.444;2022-08-19T02:56:37;14.70;;;9.50;;
59938;SDS011;45801;51.810;19.444;2022-08-19T02:59:04;13.20;;;9.60;;
59938;SDS011;45801;51.810;19.444;2022-08-19T03:01:33;12.90;;;9.50;;
59938;SDS011;45801;51.810;19.444;2022-08-19T03:04:01;12.60;;;8.70;;
59938;SDS011;45801;51.810;19.444;2022-08-19T03:06:29;13.00;;;8.40;;
59938;SDS011;45801;51.810;19.444;2022-08-19T03:08:55;13.40;;;8.90;;
59938;SDS011;45801;51.810;19.444;2022-08-19T03:13:48;13.90;;;9.90;;
59938;SDS011;45801;51.810;19.444;2022-08-19T03:16:16;13.10;;;9.60;;
59938;SDS011;45801;51.810;19.444;2022-08-19T03:18:43;13.00;;;10.00;;
59938;SDS011;45801;51.810;19.444;2022-08-19T03:21:08;13.50;;;9.60;;
59938;SDS011;45801;51.810;19.444;2022-08-19T03:23:35;13.20;;;9.40;;
59938;SDS011;45801;51.810;19.444;2022-08-19T03:26:04;14.20;;;9.10;;
59938;SDS011;45801;51.810;19.444;2022-08-19T03:28:31;12.20;;;8.70;;
59938;SDS011;45801;51.810;19.444;2022-08-19T03:30:59;13.80;;;9.30;;
59938;SDS011;45801;51.810;19.444;2022-08-19T03:33:27;13.20;;;9.30;;
59938;SDS011;45801;51.810;19.444;2022-08-19T03:36:03;12.70;;;9.60;;
59938;SDS011;45801;51.810;19.444;2022-08-19T03:38:36;13.00;;;10.20;;
59938;SDS011;45801;51.810;19.444;2022-08-19T03:41:07;13.90;;;9.60;;
59938;SDS011;45801;51.810;19.444;2022-08-19T03:43:36;13.00;;;10.20;;
59938;SDS011;45801;51.810;19.444;2022-08-19T03:46:08;13.00;;;9.90;;
59938;SDS011;45801;51.810;19.444;2022-08-19T03:48:37;13.40;;;9.10;;
59938;SDS011;45801;51.810;19.444;2022-08-19T03:51:04;14.20;;;9.90;;
59938;SDS011;45801;51.810;19.444;2022-08-19T03:53:31;13.90;;;9.50;;
59938;SDS011;45801;51.810;19.444;2022-08-19T03:55:58;15.70;;;9.70;;
59938;SDS011;45801;51.810;19.444;2022-08-19T03:58:28;13.90;;;9.70;;
59938;SDS011;45801;51.810;19.444;2022-08-19T04:00:55;13.90;;;9.40;;
59938;SDS011;45801;51.810;19.444;2022-08-19T04:03:22;13.00;;;10.00;;
59938;SDS011;45801;51.810;19.444;2022-08-19T04:05:49;14.60;;;9.50;;
59938;SDS011;45801;51.810;19.444;2022-08-19T04:08:15;14.30;;;9.70;;
59938;SDS011;45801;51.810;19.444;2022-08-19T04:10:46;15.40;;;10.80;;
59938;SDS011;45801;51.810;19.444;2022-08-19T04:13:14;14.10;;;10.20;;
59938;SDS011;45801;51.810;19.444;2022-08-19T04:15:41;14.10;;;10.10;;
59938;SDS011;45801;51.810;19.444;2022-08-19T04:18:08;15.70;;;10.10;;
59938;SDS011;45801;51.810;19.444;2022-08-19T04:20:39;14.30;;;10.70;;
59938;SDS011;45801;51.810;19.444;2022-08-19T04:23:13;13.20;;;9.60;;
59938;SDS011;45801;51.810;19.444;2022-08-19T04:25:42;15.10;;;9.70;;
59938;SDS011;45801;51.810;19.444;2022-08-19T04:28:11;12.80;;;9.60;;
59938;SDS011;45801;51.810;19.444;2022-08-19T04:30:41;13.50;;;9.30;;
59938;SDS011;45801;51.810;19.444;2022-08-19T04:33:13;15.00;;;9.70;;
59938;SDS011;45801;51.810;19.444;2022-08-19T04:35:42;13.90;;;10.30;;
59938;SDS011;45801;51.810;19.444;2022-08-19T04:38:10;14.00;;;9.60;;
59938;SDS011;45801;51.810;19.444;2022-08-19T04:40:44;12.90;;;10.10;;
59938;SDS011;45801;51.810;19.444;2022-08-19T04:43:32;12.10;;;9.40;;
59938;SDS011;45801;51.810;19.444;2022-08-19T04:45:58;13.20;;;10.00;;
59938;SDS011;45801;51.810;19.444;2022-08-19T04:48:30;16.50;;;9.70;;
59938;SDS011;45801;51.810;19.444;2022-08-19T04:50:57;13.60;;;9.10;;
59938;SDS011;45801;51.810;19.444;2022-08-19T04:53:27;12.30;;;8.80;;
59938;SDS011;45801;51.810;19.444;2022-08-19T04:55:55;13.60;;;9.70;;
59938;SDS011;45801;51.810;19.444;2022-08-19T04:58:22;13.80;;;9.30;;
59938;SDS011;45801;51.810;19.444;2022-08-19T05:00:49;13.90;;;9.30;;
59938;SDS011;45801;51.810;19.444;2022-08-19T05:03:14;13.90;;;9.50;;
59938;SDS011;45801;51.810;19.444;2022-08-19T05:05:43;14.60;;;9.50;;
59938;SDS011;45801;51.810;19.444;2022-08-19T05:08:11;13.40;;;9.40;;
59938;SDS011;45801;51.810;19.444;2022-08-19T05:10:38;13.50;;;9.60;;
59938;SDS011;45801;51.810;19.444;2022-08-19T05:13:05;15.10;;;9.70;;
59938;SDS011;45801;51.810;19.444;2022-08-19T05:15:31;13.30;;;9.30;;
59938;SDS011;45801;51.810;19.444;2022-08-19T05:17:56;14.60;;;9.70;;
59938;SDS011;45801;51.810;19.444;2022-08-19T05:20:41;12.70;;;9.40;;
59938;SDS011;45801;51.810;19.444;2022-08-19T05:23:26;13.20;;;8.50;;
59938;SDS011;45801;51.810;19.444;2022-08-19T05:25:51;12.90;;;9.20;;
59938;SDS011;45801;51.810;19.444;2022-08-19T05:28:19;12.90;;;8.50;;
59938;SDS011;45801;51.810;19.444;2022-08-19T05:30:45;13.60;;;8.80;;
59938;SDS011;45801;51.810;19.444;2022-08-19T05:33:13;12.80;;;8.90;;
59938;SDS011;45801;51.810;19.444;2022-08-19T05:35:39;12.00;;;8.60;;
59938;SDS011;45801;51.810;19.444;2022-08-19T05:38:07;12.30;;;8.80;;
59938;SDS011;45801;51.810;19.444;2022-08-19T05:40:39;13.40;;;9.90;;
59938;SDS011;45801;51.810;19.444;2022-08-19T05:43:06;15.50;;;9.60;;
59938;SDS011;45801;51.810;19.444;2022-08-19T05:45:37;15.50;;;9.20;;
59938;SDS011;45801;51.810;19.444;2022-08-19T05:48:04;13.30;;;7.80;;
59938;SDS011;45801;51.810;19.444;2022-08-19T05:50:30;13.40;;;8.50;;
59938;SDS011;45801;51.810;19.444;2022-08-19T05:52:55;13.10;;;8.60;;
59938;SDS011;45801;51.810;19.444;2022-08-19T05:55:21;13.50;;;8.70;;
59938;SDS011;45801;51.810;19.444;2022-08-19T05:57:49;12.80;;;8.70;;
59938;SDS011;45801;51.810;19.444;2022-08-19T06:00:15;12.10;;;8.50;;
59938;SDS011;45801;51.810;19.444;2022-08-19T06:02:41;16.50;;;10.00;;
59938;SDS011;45801;51.810;19.444;2022-08-19T06:05:07;18.20;;;9.30;;
59938;SDS011;45801;51.810;19.444;2022-08-19T06:07:35;14.40;;;9.30;;
59938;SDS011;45801;51.810;19.444;2022-08-19T06:10:03;14.10;;;9.00;;
59938;SDS011;45801;51.810;19.444;2022-08-19T06:12:30;13.20;;;9.50;;
59938;SDS011;45801;51.810;19.444;2022-08-19T06:15:00;11.90;;;8.50;;
59938;SDS011;45801;51.810;19.444;2022-08-19T06:17:29;14.50;;;9.50;;
59938;SDS011;45801;51.810;19.444;2022-08-19T06:19:55;13.60;;;8.00;;
59938;SDS011;45801;51.810;19.444;2022-08-19T06:22:21;14.30;;;8.70;;
59938;SDS011;45801;51.810;19.444;2022-08-19T06:24:47;13.70;;;9.60;;
59938;SDS011;45801;51.810;19.444;2022-08-19T06:27:13;14.10;;;8.90;;
59938;SDS011;45801;51.810;19.444;2022-08-19T06:29:38;12.00;;;8.20;;
59938;SDS011;45801;51.810;19.444;2022-08-19T06:32:04;14.40;;;9.40;;
59938;SDS011;45801;51.810;19.444;2022-08-19T06:34:31;14.10;;;9.10;;
59938;SDS011;45801;51.810;19.444;2022-08-19T06:36:59;12.90;;;8.30;;
59938;SDS011;45801;51.810;19.444;2022-08-19T06:39:31;13.40;;;9.10;;
59938;SDS011;45801;51.810;19.444;2022-08-19T06:42:00;13.80;;;9.30;;
59938;SDS011;45801;51.810;19.444;2022-08-19T06:44:29;14.60;;;9.10;;
59938;SDS011;45801;51.810;19.444;2022-08-19T06:47:02;15.20;;;9.30;;
59938;SDS011;45801;51.810;19.444;2022-08-19T06:49:30;12.70;;;9.10;;
59938;SDS011;45801;51.810;19.444;2022-08-19T06:51:56;12.70;;;8.50;;
59938;SDS011;45801;51.810;19.444;2022-08-19T06:54:24;14.10;;;9.30;;
59938;SDS011;45801;51.810;19.444;2022-08-19T06:56:51;13.40;;;9.40;;
59938;SDS011;45801;51.810;19.444;2022-08-19T06:59:18;15.20;;;9.40;;
59938;SDS011;45801;51.810;19.444;2022-08-19T07:01:48;16.10;;;9.20;;
59938;SDS011;45801;51.810;19.444;2022-08-19T07:04:17;12.60;;;9.60;;
59938;SDS011;45801;51.810;19.444;2022-08-19T07:06:46;13.90;;;9.80;;
59938;SDS011;45801;51.810;19.444;2022-08-19T07:09:13;14.40;;;8.80;;
59938;SDS011;45801;51.810;19.444;2022-08-19T07:11:45;13.30;;;9.40;;
59938;SDS011;45801;51.810;19.444;2022-08-19T07:14:13;14.00;;;9.20;;
59938;SDS011;45801;51.810;19.444;2022-08-19T07:16:39;15.50;;;10.30;;
59938;SDS011;45801;51.810;19.444;2022-08-19T07:19:05;12.70;;;9.30;;
59938;SDS011;45801;51.810;19.444;2022-08-19T07:21:31;13.20;;;9.10;;
59938;SDS011;45801;51.810;19.444;2022-08-19T07:23:59;13.10;;;9.40;;
59938;SDS011;45801;51.810;19.444;2022-08-19T07:26:27;12.90;;;9.40;;
59938;SDS011;45801;51.810;19.444;2022-08-19T07:28:55;13.00;;;9.30;;
59938;SDS011;45801;51.810;19.444;2022-08-19T07:31:24;12.50;;;10.10;;
59938;SDS011;45801;51.810;19.444;2022-08-19T07:33:52;13.00;;;9.60;;
59938;SDS011;45801;51.810;19.444;2022-08-19T07:36:20;17.40;;;9.80;;
59938;SDS011;45801;51.810;19.444;2022-08-19T07:38:49;13.90;;;9.80;;
59938;SDS011;45801;51.810;19.444;2022-08-19T07:41:20;14.80;;;9.90;;
59938;SDS011;45801;51.810;19.444;2022-08-19T07:43:48;13.10;;;9.00;;
59938;SDS011;45801;51.810;19.444;2022-08-19T07:46:15;15.60;;;9.90;;
59938;SDS011;45801;51.810;19.444;2022-08-19T07:48:43;11.60;;;9.40;;
59938;SDS011;45801;51.810;19.444;2022-08-19T07:51:14;13.90;;;9.50;;
59938;SDS011;45801;51.810;19.444;2022-08-19T07:53:43;15.10;;;10.20;;
59938;SDS011;45801;51.810;19.444;2022-08-19T07:56:11;13.50;;;10.40;;
59938;SDS011;45801;51.810;19.444;2022-08-19T07:58:39;13.80;;;8.90;;
59938;SDS011;45801;51.810;19.444;2022-08-19T08:01:07;15.20;;;10.80;;
59938;SDS011;45801;51.810;19.444;2022-08-19T08:03:36;15.00;;;10.50;;
59938;SDS011;45801;51.810;19.444;2022-08-19T08:06:21;14.10;;;10.20;;
59938;SDS011;45801;51.810;19.444;2022-08-19T08:09:06;14.00;;;9.70;;
59938;SDS011;45801;51.810;19.444;2022-08-19T08:11:39;14.20;;;9.90;;
59938;SDS011;45801;51.810;19.444;2022-08-19T08:14:18;14.00;;;10.00;;
59938;SDS011;45801;51.810;19.444;2022-08-19T08:16:47;13.10;;;9.80;;
59938;SDS011;45801;51.810;19.444;2022-08-19T08:19:15;13.20;;;10.10;;
59938;SDS011;45801;51.810;19.444;2022-08-19T08:21:43;13.10;;;10.60;;
59938;SDS011;45801;51.810;19.444;2022-08-19T08:24:09;12.80;;;9.40;;
59938;SDS011;45801;51.810;19.444;2022-08-19T08:26:36;13.10;;;9.90;;
59938;SDS011;45801;51.810;19.444;2022-08-19T08:29:02;12.90;;;9.70;;
59938;SDS011;45801;51.810;19.444;2022-08-19T08:31:28;15.80;;;10.20;;
59938;SDS011;45801;51.810;19.444;2022-08-19T08:33:55;16.50;;;10.60;;
59938;SDS011;45801;51.810;19.444;2022-08-19T08:36:21;14.90;;;9.90;;
59938;SDS011;45801;51.810;19.444;2022-08-19T08:38:46;14.50;;;9.80;;
59938;SDS011;45801;51.810;19.444;2022-08-19T08:43:54;12.70;;;10.00;;
59938;SDS011;45801;51.810;19.444;2022-08-19T08:48:52;13.80;;;9.70;;
59938;SDS011;45801;51.810;19.444;2022-08-19T08:51:29;15.00;;;9.70;;
59938;SDS011;45801;51.810;19.444;2022-08-19T08:54:00;13.20;;;9.30;;
59938;SDS011;45801;51.810;19.444;2022-08-19T08:56:29;14.60;;;10.50;;
59938;SDS011;45801;51.810;19.444;2022-08-19T08:59:03;13.70;;;9.50;;
59938;SDS011;45801;51.810;19.444;2022-08-19T09:01:34;13.40;;;10.50;;
59938;SDS011;45801;51.810;19.444;2022-08-19T09:04:05;13.60;;;9.50;;
59938;SDS011;45801;51.810;19.444;2022-08-19T09:06:40;13.60;;;9.00;;
59938;SDS011;45801;51.810;19.444;2022-08-19T09:12:03;14.60;;;10.40;;
59938;SDS011;45801;51.810;19.444;2022-08-19T09:15:06;13.50;;;9.50;;
59938;SDS011;45801;51.810;19.444;2022-08-19T09:17:34;13.60;;;9.30;;
59938;SDS011;45801;51.810;19.444;2022-08-19T09:20:03;15.40;;;10.00;;
59938;SDS011;45801;51.810;19.444;2022-08-19T09:22:34;13.40;;;8.90;;
59938;SDS011;45801;51.810;19.444;2022-08-19T09:25:01;13.40;;;9.20;;
59938;SDS011;45801;51.810;19.444;2022-08-19T09:27:28;12.90;;;8.90;;
59938;SDS011;45801;51.810;19.444;2022-08-19T09:29:54;14.20;;;9.40;;
59938;SDS011;45801;51.810;19.444;2022-08-19T09:32:21;13.40;;;9.60;;
59938;SDS011;45801;51.810;19.444;2022-08-19T09:34:48;13.40;;;9.50;;
59938;SDS011;45801;51.810;19.444;2022-08-19T09:37:13;13.90;;;9.60;;
59938;SDS011;45801;51.810;19.444;2022-08-19T09:39:39;14.50;;;9.70;;
59938;SDS011;45801;51.810;19.444;2022-08-19T09:42:07;12.90;;;9.40;;
59938;SDS011;45801;51.810;19.444;2022-08-19T09:44:39;13.00;;;9.20;;
59938;SDS011;45801;51.810;19.444;2022-08-19T09:47:07;12.30;;;9.20;;
59938;SDS011;45801;51.810;19.444;2022-08-19T09:49:34;12.60;;;9.80;;
59938;SDS011;45801;51.810;19.444;2022-08-19T09:52:00;13.10;;;9.00;;
59938;SDS011;45801;51.810;19.444;2022-08-19T09:54:27;13.90;;;9.00;;
59938;SDS011;45801;51.810;19.444;2022-08-19T09:56:54;13.60;;;9.20;;
59938;SDS011;45801;51.810;19.444;2022-08-19T09:59:23;13.70;;;10.00;;
59938;SDS011;45801;51.810;19.444;2022-08-19T10:01:49;14.00;;;10.10;;
59938;SDS011;45801;51.810;19.444;2022-08-19T10:04:14;13.00;;;9.30;;
59938;SDS011;45801;51.810;19.444;2022-08-19T10:06:40;14.20;;;9.20;;
59938;SDS011;45801;51.810;19.444;2022-08-19T10:09:07;13.20;;;9.10;;
59938;SDS011;45801;51.810;19.444;2022-08-19T10:11:36;12.30;;;8.70;;
59938;SDS011;45801;51.810;19.444;2022-08-19T10:14:06;12.80;;;9.40;;
59938;SDS011;45801;51.810;19.444;2022-08-19T10:16:32;13.20;;;9.70;;
59938;SDS011;45801;51.810;19.444;2022-08-19T10:18:58;13.10;;;9.30;;
59938;SDS011;45801;51.810;19.444;2022-08-19T10:21:25;13.10;;;9.10;;
59938;SDS011;45801;51.810;19.444;2022-08-19T10:23:55;14.10;;;9.30;;
59938;SDS011;45801;51.810;19.444;2022-08-19T10:26:24;11.70;;;8.00;;
59938;SDS011;45801;51.810;19.444;2022-08-19T10:28:51;15.30;;;9.20;;
59938;SDS011;45801;51.810;19.444;2022-08-19T10:31:19;13.90;;;9.30;;
59938;SDS011;45801;51.810;19.444;2022-08-19T10:33:50;14.10;;;9.50;;
59938;SDS011;45801;51.810;19.444;2022-08-19T10:36:19;12.60;;;9.50;;
59938;SDS011;45801;51.810;19.444;2022-08-19T10:38:49;12.00;;;8.70;;
59938;SDS011;45801;51.810;19.444;2022-08-19T10:41:20;13.30;;;9.20;;
59938;SDS011;45801;51.810;19.444;2022-08-19T10:43:52;14.20;;;9.30;;
59938;SDS011;45801;51.810;19.444;2022-08-19T10:46:24;12.10;;;9.00;;
59938;SDS011;45801;51.810;19.444;2022-08-19T10:48:54;12.30;;;9.30;;
59938;SDS011;45801;51.810;19.444;2022-08-19T10:51:23;12.70;;;9.00;;
59938;SDS011;45801;51.810;19.444;2022-08-19T10:54:07;13.80;;;9.20;;
59938;SDS011;45801;51.810;19.444;2022-08-19T10:56:34;12.10;;;9.10;;
59938;SDS011;45801;51.810;19.444;2022-08-19T10:59:20;12.70;;;8.40;;
59938;SDS011;45801;51.810;19.444;2022-08-19T11:02:07;13.20;;;9.30;;
59938;SDS011;45801;51.810;19.444;2022-08-19T11:04:39;13.00;;;9.80;;
59938;SDS011;45801;51.810;19.444;2022-08-19T11:07:06;14.70;;;9.20;;
59938;SDS011;45801;51.810;19.444;2022-08-19T11:09:36;14.40;;;8.60;;
59938;SDS011;45801;51.810;19.444;2022-08-19T11:12:05;13.10;;;8.30;;
59938;SDS011;45801;51.810;19.444;2022-08-19T11:14:31;12.20;;;8.80;;
59938;SDS011;45801;51.810;19.444;2022-08-19T11:16:58;12.00;;;8.30;;
59938;SDS011;45801;51.810;19.444;2022-08-19T11:19:24;15.00;;;9.00;;
59938;SDS011;45801;51.810;19.444;2022-08-19T11:21:51;10.40;;;7.80;;
59938;SDS011;45801;51.810;19.444;2022-08-19T11:24:22;13.00;;;8.40;;
59938;SDS011;45801;51.810;19.444;2022-08-19T11:26:50;14.00;;;8.30;;
59938;SDS011;45801;51.810;19.444;2022-08-19T11:29:22;10.70;;;7.90;;
59938;SDS011;45801;51.810;19.444;2022-08-19T11:31:54;10.90;;;8.30;;
59938;SDS011;45801;51.810;19.444;2022-08-19T11:34:21;11.30;;;8.00;;
59938;SDS011;45801;51.810;19.444;2022-08-19T11:36:52;11.40;;;7.80;;
59938;SDS011;45801;51.810;19.444;2022-08-19T11:39:19;14.20;;;8.90;;
59938;SDS011;45801;51.810;19.444;2022-08-19T11:41:46;13.30;;;9.00;;
59938;SDS011;45801;51.810;19.444;2022-08-19T11:44:12;14.30;;;8.00;;
59938;SDS011;45801;51.810;19.444;2022-08-19T11:46:40;13.10;;;8.20;;
59938;SDS011;45801;51.810;19.444;2022-08-19T11:49:10;12.20;;;8.60;;
59938;SDS011;45801;51.810;19.444;2022-08-19T11:51:37;13.90;;;8.80;;
59938;SDS011;45801;51.810;19.444;2022-08-19T11:54:04;12.20;;;8.80;;
59938;SDS011;45801;51.810;19.444;2022-08-19T11:56:31;14.50;;;8.30;;
59938;SDS011;45801;51.810;19.444;2022-08-19T11:58:57;11.90;;;8.30;;
59938;SDS011;45801;51.810;19.444;2022-08-19T12:01:23;14.80;;;8.50;;
59938;SDS011;45801;51.810;19.444;2022-08-19T12:03:51;12.50;;;8.40;;
59938;SDS011;45801;51.810;19.444;2022-08-19T12:06:22;14.90;;;8.10;;
59938;SDS011;45801;51.810;19.444;2022-08-19T12:08:57;16.20;;;8.90;;
59938;SDS011;45801;51.810;19.444;2022-08-19T12:11:26;13.40;;;8.20;;
59938;SDS011;45801;51.810;19.444;2022-08-19T12:13:52;12.60;;;8.00;;
59938;SDS011;45801;51.810;19.444;2022-08-19T12:16:21;12.40;;;8.10;;
59938;SDS011;45801;51.810;19.444;2022-08-19T12:18:49;13.40;;;8.40;;
59938;SDS011;45801;51.810;19.444;2022-08-19T12:21:20;12.90;;;8.20;;
59938;SDS011;45801;51.810;19.444;2022-08-19T12:23:48;12.30;;;7.70;;
59938;SDS011;45801;51.810;19.444;2022-08-19T12:26:18;14.20;;;8.90;;
59938;SDS011;45801;51.810;19.444;2022-08-19T12:28:44;13.00;;;8.80;;
59938;SDS011;45801;51.810;19.444;2022-08-19T12:31:10;11.90;;;8.20;;
59938;SDS011;45801;51.810;19.444;2022-08-19T12:33:39;13.60;;;7.70;;
59938;SDS011;45801;51.810;19.444;2022-08-19T12:36:08;12.70;;;8.00;;
59938;SDS011;45801;51.810;19.444;2022-08-19T12:38:41;15.30;;;8.70;;
59938;SDS011;45801;51.810;19.444;2022-08-19T12:41:13;12.40;;;7.60;;
59938;SDS011;45801;51.810;19.444;2022-08-19T12:43:42;12.50;;;7.50;;
59938;SDS011;45801;51.810;19.444;2022-08-19T12:46:09;14.70;;;7.90;;
59938;SDS011;45801;51.810;19.444;2022-08-19T12:48:36;13.40;;;7.60;;
59938;SDS011;45801;51.810;19.444;2022-08-19T12:51:12;11.60;;;7.80;;
59938;SDS011;45801;51.810;19.444;2022-08-19T12:53:40;13.40;;;8.00;;
59938;SDS011;45801;51.810;19.444;2022-08-19T12:56:07;11.50;;;7.30;;
59938;SDS011;45801;51.810;19.444;2022-08-19T12:58:34;15.60;;;7.40;;
59938;SDS011;45801;51.810;19.444;2022-08-19T13:01:33;13.40;;;8.50;;
59938;SDS011;45801;51.810;19.444;2022-08-19T13:03:54;12.00;;;7.80;;
59938;SDS011;45801;51.810;19.444;2022-08-19T13:06:20;13.20;;;7.70;;
59938;SDS011;45801;51.810;19.444;2022-08-19T13:08:47;13.80;;;7.40;;
59938;SDS011;45801;51.810;19.444;2022-08-19T13:11:17;13.40;;;7.90;;
59938;SDS011;45801;51.810;19.444;2022-08-19T13:13:44;11.70;;;7.40;;
59938;SDS011;45801;51.810;19.444;2022-08-19T13:16:12;12.70;;;7.60;;
59938;SDS011;45801;51.810;19.444;2022-08-19T13:18:40;11.70;;;7.90;;
59938;SDS011;45801;51.810;19.444;2022-08-19T13:21:08;13.80;;;8.30;;
59938;SDS011;45801;51.810;19.444;2022-08-19T13:23:38;13.10;;;8.50;;
59938;SDS011;45801;51.810;19.444;2022-08-19T13:26:05;12.30;;;8.10;;
59938;SDS011;45801;51.810;19.444;2022-08-19T13:28:33;11.70;;;7.60;;
59938;SDS011;45801;51.810;19.444;2022-08-19T13:31:19;12.30;;;8.40;;
59938;SDS011;45801;51.810;19.444;2022-08-19T13:34:05;16.90;;;7.90;;
59938;SDS011;45801;51.810;19.444;2022-08-19T13:36:33;12.90;;;7.40;;
59938;SDS011;45801;51.810;19.444;2022-08-19T13:38:59;14.60;;;8.50;;
59938;SDS011;45801;51.810;19.444;2022-08-19T13:41:26;12.70;;;7.60;;
59938;SDS011;45801;51.810;19.444;2022-08-19T13:43:52;11.30;;;7.90;;
59938;SDS011;45801;51.810;19.444;2022-08-19T13:46:19;10.60;;;6.90;;
59938;SDS011;45801;51.810;19.444;2022-08-19T13:48:46;12.00;;;7.00;;
59938;SDS011;45801;51.810;19.444;2022-08-19T13:51:14;10.80;;;7.30;;
59938;SDS011;45801;51.810;19.444;2022-08-19T13:53:42;15.30;;;8.10;;
59938;SDS011;45801;51.810;19.444;2022-08-19T13:56:09;14.70;;;8.40;;
59938;SDS011;45801;51.810;19.444;2022-08-19T13:58:38;12.30;;;7.60;;
59938;SDS011;45801;51.810;19.444;2022-08-19T14:01:04;12.80;;;8.00;;
59938;SDS011;45801;51.810;19.444;2022-08-19T14:03:31;12.70;;;8.10;;
59938;SDS011;45801;51.810;19.444;2022-08-19T14:05:58;13.00;;;8.50;;
59938;SDS011;45801;51.810;19.444;2022-08-19T14:08:24;13.20;;;8.10;;
59938;SDS011;45801;51.810;19.444;2022-08-19T14:10:50;13.00;;;8.80;;
59938;SDS011;45801;51.810;19.444;2022-08-19T14:13:18;11.40;;;7.00;;
59938;SDS011;45801;51.810;19.444;2022-08-19T14:15:46;12.90;;;8.30;;
59938;SDS011;45801;51.810;19.444;2022-08-19T14:18:13;12.30;;;8.20;;
59938;SDS011;45801;51.810;19.444;2022-08-19T14:20:40;14.60;;;8.40;;
59938;SDS011;45801;51.810;19.444;2022-08-19T14:23:06;13.70;;;8.20;;
59938;SDS011;45801;51.810;19.444;2022-08-19T14:25:32;14.10;;;8.80;;
59938;SDS011;45801;51.810;19.444;2022-08-19T14:27:59;11.20;;;8.10;;
59938;SDS011;45801;51.810;19.444;2022-08-19T14:30:27;14.50;;;8.90;;
59938;SDS011;45801;51.810;19.444;2022-08-19T14:32:55;13.80;;;8.20;;
59938;SDS011;45801;51.810;19.444;2022-08-19T14:35:23;14.40;;;8.00;;
59938;SDS011;45801;51.810;19.444;2022-08-19T14:37:50;13.70;;;8.00;;